• Join FlightAware (Why Join?)
  • Login
  • US Flag 
07:18AM EDT


 

Airport Tracker/Info


-or-


 

Live Flight TrackerFlight Track Log ✈ TAM3407 ✈ 03-May-2013 ✈ SBBE / BEL - SBGL / GIG

Flight Track Log - Related Links

Times and Time Zones

All times are in EDT time to prevent confusion due to time zone crossing. See the TAM3407 flight status page for this flight to view local times or setup timezone preferences in your user account.

Time Position Orientation Groundspeed Altitude Reporting Facility
EDT Latitude Longitude Course Direction KTS MPH feet Rate Location/Type
02:36AM -5.1109 -47.6150 167° South  Level Estimated
02:37AM -5.2145 -47.5910 167° South  Level Estimated
02:38AM -5.3182 -47.5669 167° South  Level Estimated
02:39AM -5.4218 -47.5429 167° South  Level Estimated
02:40AM -5.5254 -47.5188 167° South  Level Estimated
02:41AM -5.6291 -47.4947 167° South  Level Estimated
02:42AM -5.7327 -47.4706 167° South  Level Estimated
02:43AM -5.8364 -47.4466 167° South  Level Estimated
02:44AM -5.9400 -47.4225 167° South  Level Estimated
02:45AM -6.0436 -47.3984 167° South  Level Estimated
02:46AM -6.1473 -47.3743 167° South  Level Estimated
02:47AM -6.2509 -47.3502 167° South  Level Estimated
02:48AM -6.3545 -47.3260 167° South  Level Estimated
02:49AM -6.4582 -47.3019 167° South  Level Estimated
02:50AM -6.5618 -47.2777 167° South  Level Estimated
02:51AM -6.6654 -47.2536 167° South  Level Estimated
02:52AM -6.7691 -47.2294 167° South  Level Estimated
02:53AM -6.8727 -47.2052 167° South  Level Estimated
02:54AM -6.9763 -47.1810 167° South  Level Estimated
02:55AM -7.0799 -47.1568 167° South  Level Estimated
02:56AM -7.1835 -47.1326 167° South  Level Estimated
02:57AM -7.2872 -47.1084 167° South  Level Estimated
02:58AM -7.3908 -47.0842 167° South  Level Estimated
02:59AM -7.4944 -47.0599 167° South  Level Estimated
03:00AM -7.5980 -47.0356 167° South  Level Estimated
03:01AM -7.7017 -47.0114 167° South  Level Estimated
03:02AM -7.8053 -46.9871 167° South  Level Estimated
03:03AM -7.9089 -46.9628 167° South  Level Estimated
03:04AM -8.0125 -46.9385 167° South  Level Estimated
03:05AM -8.1161 -46.9142 167° South  Level Estimated
03:06AM -8.2197 -46.8899 167° South  Level Estimated
03:07AM -8.3233 -46.8655 167° South  Level Estimated
03:08AM -8.4269 -46.8411 167° South  Level Estimated
03:09AM -8.5305 -46.8168 167° South  Level Estimated
03:10AM -8.6341 -46.7924 167° South  Level Estimated
03:11AM -8.7377 -46.7680 167° South  Level Estimated
03:12AM -8.8413 -46.7436 167° South  Level Estimated
03:13AM -8.9449 -46.7192 167° South  Level Estimated
03:14AM -9.0485 -46.6947 167° South  Level Estimated
03:15AM -9.1521 -46.6703 167° South  Level Estimated
03:16AM -9.2557 -46.6458 167° South  Level Estimated
03:17AM -9.3593 -46.6213 167° South  Level Estimated
03:18AM -9.4629 -46.5968 167° South  Level Estimated
03:19AM -9.5665 -46.5723 167° South  Level Estimated
03:20AM -9.6701 -46.5478 167° South  Level Estimated
03:21AM -9.7737 -46.5233 167° South  Level Estimated
03:22AM -9.8773 -46.4987 167° South  Level Estimated
03:23AM -9.9808 -46.4741 167° South  Level Estimated
03:24AM -10.0844 -46.4495 167° South  Level Estimated
03:25AM -10.1880 -46.4249 167° South  Level Estimated
03:26AM -10.2916 -46.4003 167° South  Level Estimated
03:27AM -10.3952 -46.3757 167° South  Level Estimated
03:28AM -10.4987 -46.3510 167° South  Level Estimated
03:29AM -10.6023 -46.3264 167° South  Level Estimated
03:30AM -10.7059 -46.3017 167° South  Level Estimated
03:31AM -10.8094 -46.2770 167° South  Level Estimated
03:32AM -10.9130 -46.2523 167° South  Level Estimated
03:33AM -11.0166 -46.2275 167° South  Level Estimated
03:34AM -11.1201 -46.2028 167° South  Level Estimated
03:35AM -11.2237 -46.1780 167° South  Level Estimated
03:36AM -11.3272 -46.1532 167° South  Level Estimated
03:37AM -11.4308 -46.1284 167° South  Level Estimated
03:38AM -11.5344 -46.1036 167° South  Level Estimated
03:39AM -11.6379 -46.0788 167° South  Level Estimated
03:40AM -11.7415 -46.0539 167° South  Level Estimated
03:41AM -11.8450 -46.0290 167° South  Level Estimated
03:42AM -11.9485 -46.0041 167° South  Level Estimated
03:43AM -12.0521 -45.9792 167° South  Level Estimated
03:44AM -12.1556 -45.9543 167° South  Level Estimated
03:45AM -12.2592 -45.9293 167° South  Level Estimated
03:46AM -12.3627 -45.9043 167° South  Level Estimated
03:47AM -12.4662 -45.8793 167° South  Level Estimated
03:48AM -12.5698 -45.8543 167° South  Level Estimated
03:49AM -12.6733 -45.8293 167° South  Level Estimated
03:50AM -12.7768 -45.8042 167° South  Level Estimated
03:51AM -12.8803 -45.7791 167° South  Level Estimated
03:52AM -12.9839 -45.7540 167° South  Level Estimated
03:53AM -13.0874 -45.7289 167° South  Level Estimated
03:54AM -13.1909 -45.7038 167° South  Level Estimated
03:55AM -13.2944 -45.6786 167° South  Level Estimated
03:56AM -13.3979 -45.6534 167° South  Level Estimated
03:57AM -13.5014 -45.6282 167° South  Level Estimated
03:58AM -13.6049 -45.6030 167° South  Level Estimated
03:59AM -13.7084 -45.5777 167° South  Level Estimated
04:00AM -13.8119 -45.5525 167° South  Level Estimated
04:01AM -13.9154 -45.5272 167° South  Level Estimated
04:02AM -14.0189 -45.5019 167° South  Level Estimated
04:03AM -14.1224 -45.4765 167° South  Level Estimated
04:04AM -14.2259 -45.4512 167° South  Level Estimated
04:05AM -14.3294 -45.4258 167° South  Level Estimated
04:06AM -14.4329 -45.4004 167° South  Level Estimated
04:07AM -14.5364 -45.3749 167° South  Level Estimated
04:08AM -14.6399 -45.3495 167° South  Level Estimated
04:09AM -14.7433 -45.3240 167° South  Level Estimated
04:10AM -14.8468 -45.2985 167° South  Level Estimated
04:11AM -14.9503 -45.2730 167° South  Level Estimated
04:12AM -15.0538 -45.2474 167° South  Level Estimated
04:13AM -15.1572 -45.2219 167° South  Level Estimated
04:14AM -15.2607 -45.1963 167° South  Level Estimated
04:15AM -15.3641 -45.1706 167° South  Level Estimated
04:16AM -15.4676 -45.1450 167° South  Level Estimated
04:17AM -15.5710 -45.1193 167° South  Level Estimated
04:18AM -15.6745 -45.0936 167° South  Level Estimated
04:19AM -15.7780 -45.0679 167° South  Level Estimated
04:20AM -15.8814 -45.0421 167° South  Level Estimated
04:21AM -15.9848 -45.0163 167° South  Level Estimated
04:22AM -16.0883 -44.9905 167° South  Level Estimated
04:23AM -16.1917 -44.9647 167° South  Level Estimated
04:24AM -16.2952 -44.9388 167° South  Level Estimated
04:25AM -16.3986 -44.9129 166° South  Level Estimated
04:26AM -16.5020 -44.8870 166° South  Level Estimated
04:27AM -16.6054 -44.8610 166° South  Level Estimated
04:28AM -16.7089 -44.8351 166° South  Level Estimated
04:29AM -16.8123 -44.8091 166° South  Level Estimated
04:30AM -16.9157 -44.7831 166° South  Level Estimated
04:31AM -17.0191 -44.7570 166° South  Level Estimated
04:32AM -17.1225 -44.7309 166° South  Level Estimated
04:33AM -17.2259 -44.7048 166° South  Level Estimated
04:34AM -17.3293 -44.6786 166° South  Level Estimated
04:35AM -17.4327 -44.6525 166° South  Level Estimated
04:36AM -17.5361 -44.6262 166° South  Level Estimated
04:37AM -17.6395 -44.6000 166° South  Level Estimated
04:38AM -17.7429 -44.5737 166° South  Level Estimated
04:39AM -17.8463 -44.5474 166° South  Level Estimated
04:40AM -17.9496 -44.5211 166° South  Level Estimated
04:41AM -18.0530 -44.4947 166° South  Level Estimated
04:42AM -18.1564 -44.4683 166° South  Level Estimated
04:43AM -18.2598 -44.4419 166° South  Level Estimated
04:44AM -18.3631 -44.4155 166° South  Level Estimated
04:45AM -18.4665 -44.3890 166° South  Level Estimated
04:46AM -18.5698 -44.3625 166° South  Level Estimated
04:47AM -18.6732 -44.3359 166° South  Level Estimated
04:48AM -18.7765 -44.3094 166° South  Level Estimated
04:49AM -18.8799 -44.2827 166° South  Level Estimated
04:50AM -18.9832 -44.2561 166° South  Level Estimated
04:51AM -19.0866 -44.2294 166° South  Level Estimated
04:52AM -19.1899 -44.2027 166° South  Level Estimated
04:53AM -19.2932 -44.1760 166° South  Level Estimated
04:54AM -19.3966 -44.1492 166° South  Level Estimated
04:55AM -19.4999 -44.1224 166° South  Level Estimated
04:56AM -19.6032 -44.0955 166° South  Level Estimated
04:57AM -19.7065 -44.0687 166° South  Level Estimated
04:58AM -19.8098 -44.0417 166° South  Level Estimated
04:59AM -19.9132 -44.0148 166° South  Level Estimated
05:00AM -20.0165 -43.9878 166° South  Level Estimated
05:01AM -20.1197 -43.9608 166° South  Level Estimated
05:02AM -20.2230 -43.9337 166° South  Level Estimated
05:03AM -20.3263 -43.9066 166° South  Level Estimated
05:04AM -20.4296 -43.8795 166° South  Level Estimated
05:05AM -20.5329 -43.8523 166° South  Level Estimated
05:06AM -20.6362 -43.8251 166° South  Level Estimated
05:07AM -20.7395 -43.7979 166° South  Level Estimated
05:08AM -20.8427 -43.7706 166° South  Level Estimated
05:09AM -20.9460 -43.7433 166° South  Level Estimated
05:10AM -21.0493 -43.7160 166° South  Level Estimated
05:11AM -21.1525 -43.6886 166° South  Level Estimated
05:12AM -21.2558 -43.6611 166° South  Level Estimated
05:13AM -21.3590 -43.6337 166° South  Level Estimated
05:14AM -21.4623 -43.6062 166° South  Level Estimated
05:15AM -21.5655 -43.5786 166° South  Level Estimated
05:16AM -21.6687 -43.5510 166° South  Level Estimated
05:17AM -21.7720 -43.5234 166° South  Level Estimated
05:18AM -21.8752 -43.4958 166° South  Level Estimated
05:19AM -21.9784 -43.4681 166° South  Level Estimated
05:20AM -22.0816 -43.4403 166° South  Level Estimated
05:21AM -22.1849 -43.4126 166° South  Level Estimated
05:22AM -22.2881 -43.3847 166° South  Level Estimated
05:23AM -22.3913 -43.3568 166° South  Level Estimated
05:24AM -22.4945 -43.3289 166° South  Level Estimated
05:25AM -22.5977 -43.3010 166° South  Level Estimated
05:26AM -22.7008 -43.2730 166° South  Level Estimated
05:27AM -22.8040 -43.2450 166° South  Level Estimated
05:28AM -22.8089 -43.2436 166° South  Level Estimated
05:29AM -22.8089 -43.2436 137° Southeast  Level Estimated
05:30AM -22.8089 -43.2436 137° Southeast  Level Estimated
05:31AM -22.8089 -43.2436 137° Southeast  Level Estimated
05:32AM -22.8089 -43.2436 137° Southeast  Level Estimated
05:33AM -22.8089 -43.2436 137° Southeast  Level Estimated
05:34AM -22.8089 -43.2436 137° Southeast  Level Estimated
05:35AM -22.8089 -43.2436 137° Southeast  Level Estimated
05:36AM -22.8089 -43.2436 137° Southeast  Level Estimated
05:37AM -22.8089 -43.2436 137° Southeast  Level Estimated
05:38AM -22.8089 -43.2436 137° Southeast  Level Estimated
05:39AM -22.8089 -43.2436 137° Southeast  Level Estimated
05:40AM -22.8089 -43.2436 137° Southeast  Level Estimated
05:41AM -22.8089 -43.2436 137° Southeast  Level Estimated
05:42AM -22.8089 -43.2436 137° Southeast  Level Estimated
05:43AM -22.8089 -43.2436 137° Southeast  Level Estimated